Time;durP1;ratioP1;P1;durP2;ratioP2;P2;SDS_P1;SDS_P2;PMS_P1;PMS_P2;Temp;Humidity;BMP_temperature;BMP_pressure;BME280_temperature;BME280_humidity;BME280_pressure;Samples;Min_cycle;Max_cycle;Signal;HPM_P1;HPM_P2
2021/10/04 00:01:56;;;;;;;2.50;2.30;;;15.60;73.60;;;14.80;80.26;97820.84;5030353;28;20557;-67
2021/10/04 00:04:23;;;;;;;2.40;2.20;;;15.60;73.70;;;14.76;80.25;97822.41;5030643;28;20481;-67
2021/10/04 00:06:50;;;;;;;2.60;1.70;;;15.60;73.60;;;14.63;80.52;97820.00;5028444;28;20469;-68
2021/10/04 00:09:18;;;;;;;2.30;2.10;;;15.60;73.80;;;14.64;80.63;97821.63;5030524;28;20973;-67
2021/10/04 00:11:44;;;;;;;3.57;1.80;;;15.60;73.90;;;14.51;80.80;97823.59;5028276;28;20501;-67
2021/10/04 00:14:11;;;;;;;1.90;1.70;;;15.50;74.10;;;14.45;81.17;97819.16;5033299;28;20489;-67
2021/10/04 00:16:40;;;;;;;4.57;2.10;;;15.40;74.60;;;14.39;81.75;97829.13;5033245;28;20465;-67
2021/10/04 00:19:07;;;;;;;2.40;1.70;;;15.40;74.90;;;14.41;81.88;97837.03;5030489;28;20485;-67
2021/10/04 00:21:34;;;;;;;2.40;2.20;;;15.40;75.10;;;14.55;81.37;97845.69;5028459;28;20989;-66
2021/10/04 00:24:01;;;;;;;2.00;1.80;;;15.40;75.20;;;14.42;81.79;97846.84;5028622;28;20470;-67
2021/10/04 00:26:31;;;;;;;1.97;1.80;;;15.40;75.50;;;14.48;81.83;97851.28;5027052;28;20491;-67
2021/10/04 00:28:58;;;;;;;2.07;1.60;;;15.40;75.60;;;14.44;82.20;97845.50;5029634;28;20985;-67
2021/10/04 00:31:24;;;;;;;1.80;1.70;;;15.40;76.00;;;14.43;81.96;97838.41;5027120;28;20961;-67
2021/10/04 00:33:53;;;;;;;1.97;1.87;;;15.40;76.20;;;14.40;81.91;97859.81;5029492;28;20533;-67
2021/10/04 00:36:20;;;;;;;2.60;1.90;;;15.40;76.30;;;14.38;82.32;97865.50;5028132;28;20457;-67
2021/10/04 00:38:47;;;;;;;2.37;1.57;;;15.30;76.60;;;14.42;81.94;97874.81;5029971;28;20493;-67
2021/10/04 00:41:14;;;;;;;2.80;1.77;;;15.40;76.60;;;14.43;82.18;97876.47;5027122;28;20467;-67
2021/10/04 00:43:41;;;;;;;2.80;1.80;;;15.40;76.70;;;14.39;81.94;97853.56;5026497;28;20482;-67
2021/10/04 00:46:08;;;;;;;1.70;1.60;;;15.40;76.60;;;14.51;82.07;97864.38;5024080;28;20578;-67
2021/10/04 00:48:35;;;;;;;2.00;1.87;;;15.40;77.00;;;14.49;82.10;97863.78;5029621;28;20458;-67
2021/10/04 00:51:04;;;;;;;2.37;2.17;;;15.40;76.70;;;14.34;82.79;97860.81;5028720;28;20556;-67
2021/10/04 00:53:30;;;;;;;1.80;1.70;;;15.30;77.00;;;14.30;82.49;97866.72;5029261;28;20454;-68
2021/10/04 00:55:57;;;;;;;2.07;1.90;;;15.30;77.10;;;14.39;81.98;97852.72;5026957;28;20478;-67
2021/10/04 00:58:24;;;;;;;2.73;2.30;;;15.30;77.00;;;14.29;82.50;97858.81;5028821;28;20570;-67
2021/10/04 01:00:51;;;;;;;1.70;1.60;;;15.30;77.10;;;14.20;82.56;97861.09;5027753;28;20454;-67
2021/10/04 01:03:18;;;;;;;1.70;1.60;;;15.20;77.10;;;14.15;82.70;97859.09;5029415;28;20455;-67
2021/10/04 01:05:45;;;;;;;1.70;1.60;;;15.20;77.30;;;14.20;82.23;97852.13;5026731;28;20592;-67
2021/10/04 01:08:13;;;;;;;1.77;1.67;;;15.20;77.10;;;14.09;82.47;97857.38;5024264;28;21331;-67
2021/10/04 01:10:40;;;;;;;2.20;2.00;;;15.10;77.10;;;14.08;82.86;97857.59;5023012;28;20572;-67
2021/10/04 01:13:07;;;;;;;2.30;2.10;;;15.10;77.40;;;14.14;82.83;97857.47;5026100;28;20450;-67
2021/10/04 01:15:34;;;;;;;2.20;1.90;;;15.10;77.70;;;14.13;82.58;97853.09;5027240;28;20951;-67
2021/10/04 01:18:01;;;;;;;2.70;2.20;;;15.10;77.60;;;13.99;83.37;97857.16;5028666;28;20531;-67
2021/10/04 01:20:29;;;;;;;2.03;1.93;;;15.00;78.00;;;13.96;83.71;97860.38;5032943;28;20903;-67
2021/10/04 01:22:57;;;;;;;2.13;1.80;;;15.00;78.50;;;14.05;83.32;97861.66;5025999;28;20469;-67
2021/10/04 01:25:25;;;;;;;2.67;2.37;;;15.00;78.60;;;14.11;83.17;97868.00;5025750;28;20482;-67
2021/10/04 01:27:52;;;;;;;1.70;1.60;;;15.00;78.60;;;13.95;83.17;97869.59;5020876;28;20462;-67
2021/10/04 01:30:22;;;;;;;2.03;1.90;;;15.00;78.30;;;14.05;82.60;97868.94;5028677;28;20465;-67
2021/10/04 01:32:51;;;;;;;2.10;1.90;;;15.00;78.10;;;13.93;83.03;97867.09;5028040;28;20462;-67
2021/10/04 01:35:19;;;;;;;2.00;1.90;;;14.90;78.20;;;13.88;83.19;97853.44;5026392;28;20565;-67
2021/10/04 01:37:47;;;;;;;2.63;2.43;;;14.90;78.30;;;13.86;83.29;97878.09;5026715;28;20478;-68
2021/10/04 01:40:17;;;;;;;2.13;1.97;;;14.90;78.40;;;14.00;82.77;97894.13;5018757;28;20486;-67
2021/10/04 01:42:46;;;;;;;1.73;1.63;;;14.90;78.40;;;13.97;82.94;97889.16;5024884;28;20509;-67
2021/10/04 01:45:17;;;;;;;1.73;1.63;;;14.90;78.40;;;13.96;82.77;97887.53;5025484;28;21074;-67
2021/10/04 01:47:44;;;;;;;2.57;1.87;;;14.90;78.50;;;13.89;82.92;97879.50;5024545;28;20454;-67
2021/10/04 01:50:12;;;;;;;2.23;2.03;;;14.90;78.40;;;13.82;83.22;97882.38;5021106;28;20547;-67
2021/10/04 01:52:40;;;;;;;2.53;2.33;;;14.80;78.50;;;13.67;83.89;97869.31;5022940;28;20446;-67
2021/10/04 01:55:11;;;;;;;1.87;1.77;;;14.70;78.70;;;13.67;84.14;97874.75;5023091;28;20557;-67
2021/10/04 01:57:38;;;;;;;2.20;2.00;;;14.70;79.10;;;13.79;84.05;97888.28;5025403;28;20461;-67
2021/10/04 02:00:08;;;;;;;2.33;1.77;;;14.70;79.50;;;13.78;83.66;97886.63;5026124;28;20472;-67
2021/10/04 02:02:36;;;;;;;2.07;1.87;;;14.70;79.20;;;13.76;84.20;97877.06;5022619;28;20550;-68
2021/10/04 02:05:05;;;;;;;2.50;2.30;;;14.70;79.50;;;13.80;84.04;97883.66;5025982;28;20477;-67
2021/10/04 02:07:32;;;;;;;3.00;2.37;;;14.70;79.40;;;13.71;84.08;97875.06;5023874;28;20493;-68
2021/10/04 02:09:59;;;;;;;2.80;2.13;;;14.70;79.50;;;13.72;84.13;97869.41;5027970;28;21075;-67
2021/10/04 02:12:27;;;;;;;2.43;2.23;;;14.70;79.80;;;13.62;84.80;97865.66;5031591;28;20502;-67
2021/10/04 02:14:54;;;;;;;2.30;1.60;;;14.60;80.10;;;13.66;85.00;97869.53;5031830;28;20482;-67
2021/10/04 02:17:21;;;;;;;2.20;2.00;;;14.60;80.50;;;13.59;85.04;97867.78;5029314;28;21225;-67
2021/10/04 02:19:48;;;;;;;2.60;2.40;;;14.60;80.60;;;13.54;85.58;97880.41;5032451;28;20497;-67
2021/10/04 02:22:15;;;;;;;2.20;2.00;;;14.50;81.00;;;13.57;85.18;97880.78;5026636;28;20450;-67
2021/10/04 02:24:42;;;;;;;1.87;1.73;;;14.60;81.10;;;13.50;85.55;97877.34;5032215;28;20509;-67
2021/10/04 02:27:09;;;;;;;2.90;2.07;;;14.50;81.20;;;13.62;85.27;97871.91;5029410;28;20834;-67
2021/10/04 02:29:38;;;;;;;1.80;1.70;;;14.60;81.30;;;13.62;85.05;97874.59;5032329;28;20473;-67
2021/10/04 02:32:07;;;;;;;2.60;2.40;;;14.60;81.10;;;13.52;85.57;97861.66;5033239;28;20494;-67
2021/10/04 02:34:34;;;;;;;1.97;1.87;;;14.50;81.30;;;13.47;85.74;97875.13;5030663;28;20864;-67
2021/10/04 02:37:01;;;;;;;1.93;1.83;;;14.50;81.60;;;13.53;85.55;97887.72;5032313;28;20909;-67
2021/10/04 02:39:28;;;;;;;3.17;2.67;;;14.50;81.90;;;13.51;85.71;97889.03;5031637;28;20853;-67
2021/10/04 02:41:55;;;;;;;2.50;1.80;;;14.50;81.80;;;13.57;85.70;97896.22;5032970;28;20823;-67
2021/10/04 02:44:22;;;;;;;2.47;2.27;;;14.50;82.10;;;13.52;85.80;97887.97;5030058;28;20576;-67
2021/10/04 02:46:51;;;;;;;2.27;2.10;;;14.50;81.90;;;13.54;85.57;97881.22;5030990;28;20977;-67
2021/10/04 02:49:18;;;;;;;1.80;1.70;;;14.50;81.90;;;13.57;85.52;97886.22;5039931;28;20450;-67
2021/10/04 02:51:46;;;;;;;1.47;1.37;;;14.50;82.20;;;13.46;86.12;97898.69;5030448;28;20466;-67
2021/10/04 02:54:13;;;;;;;2.97;2.30;;;14.50;82.40;;;13.44;86.22;97891.88;5032639;28;20532;-68
2021/10/04 02:56:40;;;;;;;1.73;1.63;;;14.50;82.60;;;13.54;85.75;97896.69;5029106;28;20454;-68
2021/10/04 02:59:07;;;;;;;3.60;1.97;;;14.50;82.30;;;13.47;86.01;97891.41;5046100;28;20467;-67
2021/10/04 03:01:34;;;;;;;2.10;1.90;;;14.50;82.50;;;13.60;85.39;97877.56;5030591;28;20461;-68
2021/10/04 03:04:03;;;;;;;2.17;2.07;;;14.60;82.20;;;13.54;85.89;97881.22;5029773;28;20933;-68
2021/10/04 03:06:30;;;;;;;2.47;2.27;;;14.50;82.40;;;13.50;85.64;97890.91;5029060;28;21024;-68
2021/10/04 03:08:57;;;;;;;2.83;2.20;;;14.50;82.30;;;13.56;85.40;97892.66;5032908;28;20550;-68
2021/10/04 03:11:24;;;;;;;2.00;1.90;;;14.50;82.50;;;13.54;85.64;97908.38;5036591;28;20466;-68
2021/10/04 03:13:51;;;;;;;6.33;2.40;;;14.50;82.60;;;13.63;85.03;97899.88;5031115;28;20459;-67
2021/10/04 03:16:18;;;;;;;2.00;1.90;;;14.50;82.30;;;13.52;85.29;97906.97;5029635;28;20451;-66
2021/10/04 03:18:44;;;;;;;2.20;2.00;;;14.50;82.30;;;13.49;85.75;97910.97;5032812;28;20465;-67
2021/10/04 03:21:13;;;;;;;2.80;2.13;;;14.50;82.30;;;13.60;85.12;97912.03;5029037;28;20457;-67
2021/10/04 03:23:40;;;;;;;2.20;2.00;;;14.50;82.40;;;13.74;84.34;97912.63;5026838;28;20546;-67
2021/10/04 03:26:07;;;;;;;2.07;1.97;;;14.60;81.90;;;13.66;84.67;97915.69;5026780;28;20466;-67
2021/10/04 03:28:33;;;;;;;2.00;1.80;;;14.60;81.60;;;13.56;84.75;97916.28;5027196;28;20466;-67
2021/10/04 03:31:01;;;;;;;1.80;1.70;;;14.60;81.60;;;13.50;85.30;97917.25;5033230;28;20882;-67
2021/10/04 03:33:27;;;;;;;3.07;1.87;;;14.50;81.90;;;13.53;85.05;97919.47;5030416;28;20484;-67
2021/10/04 03:35:54;;;;;;;1.90;1.80;;;14.50;82.10;;;13.44;85.24;97914.41;5030503;28;20478;-67
2021/10/04 03:38:22;;;;;;;2.30;2.10;;;14.50;81.90;;;13.41;85.58;97911.28;5029947;28;20470;-67
2021/10/04 03:40:49;;;;;;;2.07;1.90;;;14.40;82.20;;;13.49;85.26;97910.97;5029077;28;20474;-67
2021/10/04 03:43:16;;;;;;;2.70;2.50;;;14.50;82.40;;;13.49;85.78;97919.13;5026415;28;20477;-67
2021/10/04 03:45:43;;;;;;;2.30;2.10;;;14.50;82.50;;;13.53;85.36;97925.72;5030946;28;20564;-67
2021/10/04 03:48:11;;;;;;;1.97;1.87;;;14.50;82.50;;;13.44;85.42;97932.59;5028046;28;20557;-68
2021/10/04 03:50:38;;;;;;;2.70;2.23;;;14.50;82.30;;;13.38;85.84;97928.06;5026724;28;20452;-68
2021/10/04 03:53:05;;;;;;;2.67;2.47;;;14.40;82.60;;;13.38;85.70;97930.78;5026405;28;20631;-68
2021/10/04 03:55:34;;;;;;;2.40;2.20;;;14.40;82.70;;;13.34;85.85;97935.03;5027212;28;20484;-68
2021/10/04 03:58:01;;;;;;;2.20;2.00;;;14.40;82.60;;;13.31;85.71;97929.00;5028427;28;20465;-67
2021/10/04 04:00:28;;;;;;;2.40;2.20;;;14.30;82.70;;;13.25;86.19;97918.28;5028137;28;20482;-67
2021/10/04 04:02:56;;;;;;;2.30;2.00;;;14.30;83.00;;;13.31;85.49;97920.88;5032412;28;20469;-67
2021/10/04 04:05:24;;;;;;;2.80;2.60;;;14.30;82.60;;;13.35;85.15;97920.38;5025473;28;20585;-67
2021/10/04 04:07:51;;;;;;;2.40;2.20;;;14.30;82.40;;;13.30;85.19;97919.22;5029187;28;20655;-67
2021/10/04 04:10:18;;;;;;;2.30;2.10;;;14.30;82.00;;;13.21;84.77;97915.19;5029970;28;20446;-67
2021/10/04 04:12:46;;;;;;;2.57;2.37;;;14.30;81.50;;;13.24;84.45;97909.28;5030264;28;20468;-67
2021/10/04 04:15:14;;;;;;;3.97;2.20;;;14.20;81.60;;;13.25;84.28;97908.22;5029207;28;20958;-67
2021/10/04 04:17:41;;;;;;;2.30;2.10;;;14.30;81.10;;;13.21;84.44;97908.97;5031092;28;20989;-67
2021/10/04 04:20:11;;;;;;;2.33;2.13;;;14.20;81.20;;;13.12;84.29;97913.91;5030347;28;20472;-67
2021/10/04 04:22:40;;;;;;;2.53;2.33;;;14.20;81.00;;;13.13;84.38;97923.69;5029215;28;20459;-67
2021/10/04 04:25:09;;;;;;;2.33;2.13;;;14.20;81.30;;;13.15;84.54;97935.13;5029301;28;20533;-67
2021/10/04 04:27:36;;;;;;;2.90;2.30;;;14.10;81.30;;;13.07;84.76;97939.00;5031747;28;20487;-68
2021/10/04 04:30:06;;;;;;;2.50;2.13;;;14.10;81.30;;;13.30;83.51;97940.94;5029038;28;20453;-67
2021/10/04 04:32:33;;;;;;;3.27;1.97;;;14.20;80.90;;;13.07;84.08;97936.31;5025069;28;20973;-67
2021/10/04 04:35:05;;;;;;;2.20;2.00;;;14.10;80.30;;;13.11;83.57;97945.63;5033025;28;20476;-67
2021/10/04 04:37:32;;;;;;;2.77;1.63;;;14.10;80.40;;;13.27;82.16;97956.84;5032949;28;20460;-76
2021/10/04 04:39:59;;;;;;;2.03;1.83;;;14.20;79.80;;;13.27;82.13;97957.69;5029913;28;20605;-76
2021/10/04 04:42:26;;;;;;;2.00;1.90;;;14.20;79.60;;;13.13;82.50;97950.81;5030897;28;20476;-76
2021/10/04 04:44:54;;;;;;;1.60;1.50;;;14.10;79.30;;;13.04;82.67;97958.44;5027931;28;20474;-78
2021/10/04 04:47:22;;;;;;;1.73;1.50;;;14.10;79.20;;;13.01;82.13;97958.91;5030188;28;20477;-76
2021/10/04 04:49:49;;;;;;;2.50;1.50;;;14.00;78.40;;;12.95;82.15;97963.38;5026872;28;20473;-77
2021/10/04 04:52:16;;;;;;;1.73;1.60;;;14.00;78.90;;;12.99;81.67;97970.00;5029776;28;20462;-76
2021/10/04 04:54:43;;;;;;;2.37;1.87;;;14.00;78.20;;;13.06;81.45;97966.34;5030467;28;20553;-75
2021/10/04 04:57:10;;;;;;;2.70;1.60;;;14.00;78.10;;;13.01;81.37;97972.47;5026159;28;20498;-75
2021/10/04 04:59:37;;;;;;;1.80;1.70;;;14.00;78.00;;;12.84;81.53;97975.03;5025184;28;20505;-77
2021/10/04 05:02:04;;;;;;;1.20;1.10;;;13.90;78.10;;;12.85;81.81;97982.13;5027537;28;20489;-78
2021/10/04 05:04:32;;;;;;;1.40;1.30;;;13.90;77.70;;;12.84;81.47;97969.63;5026857;28;20478;-76
2021/10/04 05:06:59;;;;;;;2.70;1.83;;;13.90;77.60;;;12.88;81.33;97970.81;5027213;28;20451;-77
2021/10/04 05:09:26;;;;;;;1.20;1.10;;;13.90;77.60;;;12.78;81.33;97954.25;5026865;28;20545;-77
2021/10/04 05:11:54;;;;;;;1.37;1.27;;;13.80;77.20;;;12.74;81.30;97954.72;5028634;28;20466;-76
2021/10/04 05:14:20;;;;;;;1.40;1.30;;;13.80;77.30;;;12.74;81.28;97954.72;5029425;28;20484;-76
2021/10/04 05:16:49;;;;;;;1.33;1.23;;;13.80;77.40;;;12.86;81.21;97957.47;5025323;28;20549;-89
2021/10/04 05:19:16;;;;;;;1.60;1.43;;;13.80;77.40;;;12.97;80.54;97980.28;5027175;28;20505;-85
2021/10/04 05:21:45;;;;;;;1.50;1.40;;;13.90;77.00;;;12.99;80.48;97989.00;5026424;28;20473;-82
2021/10/04 05:24:12;;;;;;;1.57;1.47;;;14.00;76.90;;;13.00;80.36;97995.22;5024008;28;20477;-79
2021/10/04 05:26:40;;;;;;;1.27;1.03;;;14.00;76.70;;;12.98;80.33;98000.91;5039337;28;20545;-80
2021/10/04 05:29:07;;;;;;;1.97;1.63;;;14.00;76.80;;;12.94;80.53;98002.41;5024224;28;20455;-84
2021/10/04 05:31:34;;;;;;;1.17;1.10;;;14.00;76.60;;;12.93;80.23;97998.03;5023059;28;20453;-85
2021/10/04 05:34:02;;;;;;;1.30;1.20;;;14.00;76.60;;;12.95;80.51;98014.09;5026328;28;20545;-87
2021/10/04 05:36:29;;;;;;;1.50;1.40;;;14.00;76.70;;;12.88;80.94;98019.59;5024928;28;20474;-78
2021/10/04 05:38:58;;;;;;;1.90;1.70;;;13.90;76.70;;;12.95;80.65;98009.47;5028228;28;20474;-81
2021/10/04 05:41:24;;;;;;;3.00;1.90;;;13.90;76.80;;;13.02;80.74;98009.38;5024235;28;20469;-80
2021/10/04 05:43:51;;;;;;;2.20;2.00;;;14.00;77.00;;;13.04;80.62;98008.09;5024597;28;20470;-82
2021/10/04 05:46:18;;;;;;;2.10;1.50;;;14.00;76.70;;;13.00;80.79;98012.34;5025953;28;20454;-81
2021/10/04 05:48:45;;;;;;;1.80;1.70;;;14.00;76.80;;;13.07;80.21;98019.53;5023765;28;20464;-80
2021/10/04 05:51:12;;;;;;;5.73;1.97;;;14.10;76.60;;;13.05;79.39;98025.22;5027452;28;20842;-82
2021/10/04 05:53:39;;;;;;;2.10;1.73;;;14.10;76.00;;;12.98;79.22;98029.91;5023890;28;21045;-77
2021/10/04 05:56:07;;;;;;;1.40;1.30;;;14.00;75.70;;;12.95;78.97;98036.59;5024793;28;20489;-81
2021/10/04 05:58:34;;;;;;;2.27;1.33;;;14.00;75.20;;;12.85;79.10;98030.91;5024967;28;20462;-81
2021/10/04 06:01:01;;;;;;;2.13;1.40;;;13.90;74.80;;;12.94;78.31;98034.13;5023528;28;20476;-80
2021/10/04 06:03:28;;;;;;;2.30;1.30;;;13.90;74.80;;;12.95;78.20;98036.59;5027575;28;20459;-81
2021/10/04 06:05:55;;;;;;;1.93;1.30;;;13.90;74.40;;;12.84;78.40;98040.13;5020673;28;20493;-81
2021/10/04 06:08:22;;;;;;;2.20;1.30;;;13.90;74.30;;;12.80;78.78;98034.31;5025196;28;20537;-83
2021/10/04 06:10:49;;;;;;;1.50;1.33;;;13.80;74.50;;;12.77;78.91;98031.22;5025919;28;20486;-80
2021/10/04 06:13:17;;;;;;;3.43;1.77;;;13.80;74.50;;;12.75;79.05;98032.28;5022070;28;21207;-78
2021/10/04 06:15:45;;;;;;;3.10;1.20;;;13.80;74.50;;;12.79;78.77;98037.25;5023442;28;20577;-79
2021/10/04 06:18:13;;;;;;;0.93;0.83;;;13.80;74.50;;;12.74;79.29;98036.06;5022304;28;20551;-76
2021/10/04 06:20:40;;;;;;;1.10;1.00;;;13.80;74.70;;;12.78;79.07;98038.31;5022398;28;20627;-77
2021/10/04 06:23:07;;;;;;;2.10;0.87;;;13.80;74.70;;;12.82;79.24;98040.34;5020851;28;20545;-77
2021/10/04 06:25:34;;;;;;;1.30;1.13;;;13.80;74.80;;;12.91;78.88;98034.59;5019139;28;20843;-77
2021/10/04 06:28:01;;;;;;;2.00;1.20;;;13.90;74.70;;;12.96;78.67;98043.66;5019072;28;20916;-75
2021/10/04 06:30:30;;;;;;;1.37;1.07;;;13.90;74.70;;;12.85;79.02;98048.00;5017390;28;20530;-76
2021/10/04 06:32:57;;;;;;;1.83;1.13;;;13.90;74.70;;;12.89;79.06;98051.94;5022969;28;20488;-77
2021/10/04 06:35:24;;;;;;;1.47;1.03;;;13.90;74.90;;;12.80;79.59;98061.44;5022817;28;20479;-76
2021/10/04 06:37:51;;;;;;;1.93;1.83;;;13.80;74.90;;;12.78;80.09;98062.69;5020394;28;20462;-75
2021/10/04 06:40:18;;;;;;;1.77;1.40;;;13.80;75.30;;;12.79;80.18;98059.78;5023665;28;20466;-76
2021/10/04 06:42:45;;;;;;;1.90;1.70;;;13.80;75.50;;;12.82;80.02;98059.31;5020215;28;20460;-76
2021/10/04 06:45:12;;;;;;;2.30;1.60;;;13.80;75.50;;;12.87;79.75;98072.19;5021801;28;20784;-76
2021/10/04 06:47:41;;;;;;;2.07;1.67;;;13.80;75.40;;;12.87;79.87;98077.59;5019377;28;20462;-76
2021/10/04 06:50:10;;;;;;;1.40;1.30;;;13.90;75.30;;;12.81;80.08;98086.63;5023506;28;20461;-77
2021/10/04 06:52:38;;;;;;;1.37;1.27;;;13.80;75.50;;;12.82;79.95;98086.41;5021167;28;20961;-77
2021/10/04 06:55:07;;;;;;;1.60;1.40;;;13.90;75.40;;;12.72;80.69;98097.81;5020705;28;20550;-77
2021/10/04 06:57:36;;;;;;;2.20;2.00;;;13.80;75.80;;;12.77;80.95;98104.41;5017025;28;20557;-77
2021/10/04 07:00:06;;;;;;;1.90;1.03;;;13.80;76.00;;;12.76;80.85;98114.47;5020907;28;20478;-76
2021/10/04 07:02:33;;;;;;;1.07;0.97;;;13.70;76.00;;;12.63;81.36;98115.41;5018448;28;20541;-76
2021/10/04 07:05:01;;;;;;;2.30;1.87;;;13.70;76.20;;;12.79;80.56;98124.00;5026567;28;20482;-76
2021/10/04 07:07:29;;;;;;;1.37;1.27;;;13.80;76.00;;;12.84;80.36;98116.84;5027741;28;20454;-76
2021/10/04 07:09:56;;;;;;;1.10;0.80;;;13.80;75.90;;;12.83;79.94;98107.06;5026221;28;20549;-75
2021/10/04 07:12:23;;;;;;;1.70;0.90;;;13.80;75.50;;;12.82;79.93;98110.00;5027811;28;20493;-77
2021/10/04 07:14:52;;;;;;;0.97;0.93;;;13.80;75.20;;;12.85;79.71;98109.53;5025339;28;20485;-76
2021/10/04 07:17:19;;;;;;;2.00;1.20;;;13.90;75.30;;;12.89;79.44;98118.88;5010350;28;20474;-75
2021/10/04 07:19:46;;;;;;;0.60;0.60;;;13.90;75.10;;;12.85;79.71;98129.34;5023681;28;20572;-78
2021/10/04 07:22:15;;;;;;;1.00;0.77;;;13.90;75.10;;;12.86;79.87;98122.03;5027566;28;21082;-79
2021/10/04 07:24:42;;;;;;;0.73;0.63;;;13.90;75.20;;;12.91;79.76;98122.19;5023284;28;20923;-78
2021/10/04 07:27:09;;;;;;;0.90;0.90;;;13.90;75.20;;;12.85;80.15;98123.09;5021780;28;20482;-75
2021/10/04 07:29:36;;;;;;;0.70;0.50;;;13.90;75.50;;;12.92;79.64;98129.25;5025936;28;20476;-78
2021/10/04 07:32:04;;;;;;;1.07;0.73;;;13.90;75.40;;;12.90;80.09;98134.09;5024381;28;20510;-76
2021/10/04 07:34:32;;;;;;;1.10;1.00;;;13.90;75.30;;;12.92;79.83;98133.88;5028698;28;20569;-77
2021/10/04 07:37:00;;;;;;;0.83;0.70;;;13.90;75.40;;;12.90;79.75;98134.09;5024980;28;21021;-77
2021/10/04 07:39:29;;;;;;;2.93;0.70;;;14.00;75.20;;;12.93;79.56;98139.03;5044591;28;20904;-78
2021/10/04 07:41:57;;;;;;;1.10;0.67;;;14.00;75.10;;;13.00;79.74;98137.09;5024853;28;20553;-78
2021/10/04 07:44:25;;;;;;;2.10;0.80;;;14.00;75.40;;;12.96;79.80;98151.34;5024718;28;20474;-79
2021/10/04 07:46:54;;;;;;;1.20;1.00;;;14.00;75.20;;;12.94;79.87;98154.25;5023425;28;20545;-77
2021/10/04 07:49:21;;;;;;;0.83;0.80;;;14.00;75.40;;;12.78;80.67;98161.13;5025315;28;20459;-77
2021/10/04 07:51:48;;;;;;;2.13;0.90;;;13.80;75.60;;;12.72;81.05;98162.88;5039283;28;20467;-78
2021/10/04 07:54:15;;;;;;;0.70;0.70;;;13.80;76.00;;;12.71;81.16;98166.63;5017798;28;20485;-76
2021/10/04 07:56:44;;;;;;;1.20;1.10;;;13.70;76.20;;;12.80;81.13;98158.19;5023668;28;20553;-77
2021/10/04 07:59:11;;;;;;;5.90;0.90;;;13.80;76.30;;;12.94;80.30;98158.88;5022954;28;20466;-77
2021/10/04 08:01:38;;;;;;;1.53;0.93;;;13.90;76.00;;;12.96;80.06;98156.75;5018252;28;20484;-76
2021/10/04 08:04:05;;;;;;;0.90;0.90;;;13.90;75.80;;;12.85;80.35;98161.06;5018219;28;20648;-79
2021/10/04 08:06:32;;;;;;;1.30;1.10;;;13.90;75.50;;;12.70;81.04;98164.97;5024318;28;20464;-80
2021/10/04 08:08:59;;;;;;;1.20;0.80;;;13.80;76.10;;;12.68;81.19;98177.09;5015745;28;20557;-79
2021/10/04 08:11:26;;;;;;;1.00;0.90;;;13.70;76.20;;;12.75;81.14;98175.16;5025015;28;20458;-79
2021/10/04 08:13:55;;;;;;;0.90;0.90;;;13.70;76.30;;;12.88;80.56;98190.44;5022484;28;20454;-79
2021/10/04 08:16:23;;;;;;;1.10;1.03;;;13.80;76.00;;;12.82;80.78;98191.34;5022204;28;20678;-79
2021/10/04 08:18:50;;;;;;;1.10;1.10;;;13.80;76.10;;;12.67;81.39;98186.28;5025291;28;20553;-78
2021/10/04 08:21:18;;;;;;;2.03;1.20;;;13.70;76.10;;;12.71;81.46;98179.34;5023507;28;21132;-79
2021/10/04 08:23:46;;;;;;;1.33;1.20;;;13.70;76.40;;;12.73;81.38;98183.50;5026018;28;20462;-78
2021/10/04 08:26:14;;;;;;;1.07;1.00;;;13.70;76.50;;;12.93;80.73;98181.63;5023296;28;20478;-80
2021/10/04 08:28:41;;;;;;;0.83;0.83;;;13.90;76.50;;;12.89;80.36;98178.53;5024425;28;20562;-81
2021/10/04 08:31:09;;;;;;;4.67;1.63;;;13.90;76.10;;;12.91;80.58;98187.25;5019304;28;20458;-80
2021/10/04 08:33:36;;;;;;;1.50;1.03;;;13.90;76.10;;;12.89;80.54;98195.63;5024907;28;20459;-80
2021/10/04 08:36:05;;;;;;;1.57;0.90;;;13.90;76.10;;;12.83;80.89;98201.13;5024746;28;21258;-79
2021/10/04 08:38:32;;;;;;;5.00;4.63;;;13.80;76.10;;;12.74;81.12;98206.84;5022788;28;20955;-80
2021/10/04 08:40:59;;;;;;;2.30;1.50;;;13.80;76.20;;;12.65;81.60;98202.75;5024178;28;20473;-78
2021/10/04 08:43:27;;;;;;;2.00;1.30;;;13.70;76.50;;;12.61;82.16;98198.84;5023056;28;20545;-80
2021/10/04 08:45:57;;;;;;;2.30;1.20;;;13.60;76.80;;;12.60;81.77;98191.78;5021429;28;20842;-80
2021/10/04 08:48:27;;;;;;;1.30;1.20;;;13.70;76.80;;;12.74;81.65;98192.47;5023189;28;20473;-82
2021/10/04 08:50:55;;;;;;;1.33;1.23;;;13.70;76.90;;;12.90;81.03;98196.44;5040574;28;20898;-81
2021/10/04 08:53:23;;;;;;;1.40;1.30;;;13.80;76.60;;;12.98;80.80;98198.03;5021673;28;20462;-78
2021/10/04 08:55:50;;;;;;;1.77;1.33;;;13.90;76.60;;;12.99;80.50;98203.25;5016242;28;20486;-74
2021/10/04 08:58:17;;;;;;;2.53;1.40;;;14.00;76.40;;;13.00;80.39;98214.91;5023322;28;20458;-79
2021/10/04 09:00:45;;;;;;;2.60;1.30;;;14.00;76.20;;;12.82;81.21;98224.69;5023298;28;20474;-78
2021/10/04 09:03:13;;;;;;;2.20;1.40;;;13.90;76.40;;;12.97;81.09;98218.91;5020471;28;21048;-78
2021/10/04 09:05:44;;;;;;;2.00;1.10;;;14.00;76.50;;;12.82;81.45;98219.28;5019495;28;20477;-78
2021/10/04 09:08:14;;;;;;;1.77;1.30;;;13.80;76.80;;;12.99;80.83;98218.66;5037668;28;20454;-77
2021/10/04 09:10:44;;;;;;;2.80;1.30;;;14.00;76.60;;;12.93;80.52;98222.28;5017031;28;20470;-78
2021/10/04 09:13:13;;;;;;;1.20;1.20;;;14.00;76.30;;;13.13;80.08;98224.78;5023559;28;20450;-79
2021/10/04 09:15:42;;;;;;;1.50;1.40;;;14.10;76.10;;;13.00;80.27;98234.72;5022729;28;20547;-77
2021/10/04 09:18:19;;;;;;;1.47;1.37;;;14.00;76.10;;;12.83;81.17;98229.06;5041167;28;20541;-78
2021/10/04 09:21:07;;;;;;;2.50;1.57;;;13.90;76.30;;;12.86;81.44;98238.63;5020209;28;20585;-77
2021/10/04 09:23:46;;;;;;;1.63;1.53;;;13.80;76.70;;;12.84;81.58;98238.03;5023542;28;20450;-77
2021/10/04 09:26:34;;;;;;;1.80;1.70;;;13.80;76.90;;;12.75;82.14;98226.66;5017668;28;20954;-78
2021/10/04 09:29:05;;;;;;;1.60;1.50;;;13.80;77.20;;;12.94;81.46;98234.81;5026758;28;20552;-75
2021/10/04 09:31:34;;;;;;;2.00;1.90;;;13.90;77.20;;;12.96;81.66;98228.06;5023475;28;20482;-76
2021/10/04 09:34:06;;;;;;;2.80;1.87;;;14.00;77.30;;;12.88;81.90;98231.09;5020446;28;20553;-75
2021/10/04 09:36:36;;;;;;;1.90;1.80;;;13.90;77.30;;;12.67;83.00;98221.53;5026183;28;20819;-76
2021/10/04 09:39:16;;;;;;;1.97;1.87;;;13.80;77.70;;;12.66;83.72;98228.84;5015888;28;21021;-75
2021/10/04 09:42:08;;;;;;;4.30;2.10;;;13.70;78.50;;;12.66;83.69;98236.97;5022991;28;20477;-76
2021/10/04 09:44:55;;;;;;;3.60;2.30;;;13.70;79.00;;;12.37;85.88;98236.59;5025648;28;21181;-76
2021/10/04 09:47:26;;;;;;;2.60;2.40;;;13.50;80.10;;;12.21;87.23;98234.41;5023903;28;20457;-73
2021/10/04 09:49:57;;;;;;;3.03;2.73;;;13.40;81.90;;;12.33;88.10;98241.63;5021063;28;20524;-74
2021/10/04 09:52:46;;;;;;;3.90;2.87;;;13.30;83.60;;;12.36;87.76;98243.06;5023255;28;21409;-74
2021/10/04 09:55:17;;;;;;;3.00;2.80;;;13.40;83.80;;;12.27;88.72;98241.69;5019625;28;20591;-73
2021/10/04 09:57:55;;;;;;;5.93;3.10;;;13.30;84.90;;;12.24;90.03;98239.44;5021292;28;21050;-74
2021/10/04 10:00:22;;;;;;;4.87;4.37;;;13.30;86.40;;;12.32;89.69;98258.09;5013988;28;20485;-74
2021/10/04 10:02:54;;;;;;;6.80;5.40;;;13.30;86.70;;;12.04;90.96;98240.38;5017990;28;20562;-73
2021/10/04 10:05:24;;;;;;;4.67;4.20;;;13.20;87.60;;;12.06;91.88;98249.16;5022727;28;20560;-73
2021/10/04 10:07:52;;;;;;;4.00;3.60;;;13.10;88.80;;;12.19;91.14;98249.03;5020660;28;21022;-74
2021/10/04 10:10:20;;;;;;;11.57;6.17;;;13.20;88.90;;;12.20;91.21;98252.56;5024383;28;20443;-74
2021/10/04 10:12:48;;;;;;;6.17;5.20;;;13.30;88.80;;;12.33;90.71;98257.03;5022683;28;20472;-73
2021/10/04 10:15:21;;;;;;;5.73;3.80;;;13.30;89.10;;;12.38;91.16;98270.78;5021439;28;20565;-72
2021/10/04 10:17:51;;;;;;;2.37;2.20;;;13.40;89.60;;;12.34;91.40;98274.94;5022179;28;20996;-73
2021/10/04 10:20:22;;;;;;;0.80;0.80;;;13.40;89.40;;;12.18;90.84;98285.28;5023918;28;20466;-74
2021/10/04 10:22:53;;;;;;;1.50;1.40;;;13.30;88.50;;;12.05;92.56;98288.06;5022983;28;20510;-74
2021/10/04 10:25:36;;;;;;;1.67;1.57;;;13.10;90.30;;;11.93;93.64;98289.81;5018196;28;20486;-74